createdAt,value
2023-05-24T00:00:08.422Z,18.9902
2023-05-24T00:01:10.279Z,18.9885
2023-05-24T00:02:12.086Z,18.9867
2023-05-24T00:03:14.015Z,18.9585
2023-05-24T00:04:15.885Z,18.9509
2023-05-24T00:05:17.610Z,18.9425
2023-05-24T00:06:19.434Z,18.8994
2023-05-24T00:07:21.281Z,18.9101
2023-05-24T00:08:23.106Z,18.9255
2023-05-24T00:09:24.951Z,18.9267
2023-05-24T00:10:26.789Z,18.9513
2023-05-24T00:11:28.599Z,18.9875
2023-05-24T00:12:30.451Z,18.9592
2023-05-24T00:13:32.274Z,18.9172
2023-05-24T00:14:34.095Z,18.9053
2023-05-24T00:15:35.940Z,18.9592
2023-05-24T00:16:37.932Z,18.9700
2023-05-24T00:17:39.625Z,18.9711
2023-05-24T00:18:41.439Z,18.9394
2023-05-24T00:19:43.280Z,18.9195
2023-05-24T00:20:45.394Z,18.9207
2023-05-24T00:21:46.926Z,18.9366
2023-05-24T00:22:48.784Z,18.9203
2023-05-24T00:23:50.596Z,18.9433
2023-05-24T00:24:52.445Z,18.9585
2023-05-24T00:25:54.298Z,18.9304
2023-05-24T00:26:56.100Z,18.8961
2023-05-24T00:27:57.934Z,18.8848
2023-05-24T00:28:59.772Z,18.8378
2023-05-24T00:30:01.679Z,18.8189
2023-05-24T00:31:03.537Z,18.8359
2023-05-24T00:32:05.393Z,18.8521
2023-05-24T00:33:07.241Z,18.8949
2023-05-24T00:34:09.022Z,18.9540
2023-05-24T00:35:10.856Z,18.9686
2023-05-24T00:36:12.701Z,18.9768
2023-05-24T00:37:14.522Z,18.9846
2023-05-24T00:38:16.344Z,18.9883
2023-05-24T00:39:18.188Z,18.9834
2023-05-24T00:40:20.009Z,18.9618
2023-05-24T00:41:21.848Z,18.9719
2023-05-24T00:42:23.677Z,18.9690
2023-05-24T00:43:25.554Z,18.9762
2023-05-24T00:44:27.368Z,18.9709
2023-05-24T00:45:29.482Z,18.9748
2023-05-24T00:46:31.087Z,18.9668
2023-05-24T00:47:32.873Z,18.9663
2023-05-24T00:48:34.677Z,18.9739
2023-05-24T00:49:36.566Z,18.9663
2023-05-24T00:50:38.357Z,18.9787
2023-05-24T00:51:40.197Z,18.9918
2023-05-24T00:52:42.030Z,18.9707
2023-05-24T00:53:43.859Z,18.9552
2023-05-24T00:54:45.682Z,18.9665
2023-05-24T00:55:47.526Z,18.9704
2023-05-24T00:56:49.367Z,18.9704
2023-05-24T00:57:51.206Z,18.9421
2023-05-24T00:58:53.022Z,18.9411
2023-05-24T00:59:54.885Z,18.9665
2023-05-24T01:00:56.708Z,18.9752
2023-05-24T01:01:58.660Z,18.9719
2023-05-24T01:03:00.438Z,18.9665
2023-05-24T01:04:02.212Z,18.9713
2023-05-24T01:05:04.060Z,18.9509
2023-05-24T01:06:05.889Z,18.9292
2023-05-24T01:07:07.721Z,18.9113
2023-05-24T01:08:09.581Z,18.8569
2023-05-24T01:09:11.416Z,18.8790
2023-05-24T01:10:13.252Z,18.9195
2023-05-24T01:11:15.082Z,18.9327
2023-05-24T01:12:16.918Z,18.9320
2023-05-24T01:13:18.742Z,18.9409
2023-05-24T01:14:20.585Z,18.9380
2023-05-24T01:15:22.439Z,18.9491
2023-05-24T01:16:24.303Z,18.9497
2023-05-24T01:17:26.097Z,18.9540
2023-05-24T01:18:27.911Z,18.9571
2023-05-24T01:19:29.766Z,18.9442
2023-05-24T01:20:31.616Z,18.9499
2023-05-24T01:21:33.410Z,18.9409
2023-05-24T01:22:35.279Z,18.9376
2023-05-24T01:23:37.090Z,18.9253
2023-05-24T01:24:38.902Z,18.9154
2023-05-24T01:25:40.741Z,18.8897
2023-05-24T01:26:42.581Z,18.8770
2023-05-24T01:27:44.411Z,18.8671
2023-05-24T01:28:46.251Z,18.8778
2023-05-24T01:29:48.083Z,18.8893
2023-05-24T01:30:49.913Z,18.9133
2023-05-24T01:31:51.763Z,18.9189
2023-05-24T01:32:53.607Z,18.9177
2023-05-24T01:33:55.422Z,18.9368
2023-05-24T01:34:57.266Z,18.9364
2023-05-24T01:35:59.098Z,18.9374
2023-05-24T01:37:00.944Z,18.9088
2023-05-24T01:38:02.759Z,18.8994
2023-05-24T01:39:04.598Z,18.8842
2023-05-24T01:40:06.438Z,18.8636
2023-05-24T01:41:08.282Z,18.8714
2023-05-24T01:42:10.095Z,18.8854
2023-05-24T01:43:11.939Z,18.8967
2023-05-24T01:44:13.780Z,18.9039
2023-05-24T01:45:15.616Z,18.9094
2023-05-24T01:46:17.447Z,18.9031
2023-05-24T01:47:19.341Z,18.8920
2023-05-24T01:48:21.123Z,18.8513
2023-05-24T01:49:22.936Z,18.8910
2023-05-24T01:50:25.916Z,18.9004
2023-05-24T01:51:26.617Z,18.9107
2023-05-24T01:52:28.491Z,18.9140
2023-05-24T01:53:30.309Z,18.8979
2023-05-24T01:54:32.111Z,18.8990
2023-05-24T01:55:33.944Z,18.8836
2023-05-24T01:56:35.795Z,18.8942
2023-05-24T01:57:37.631Z,18.8875
2023-05-24T01:58:39.473Z,18.8868
2023-05-24T01:59:41.303Z,18.8675
2023-05-24T02:00:43.367Z,18.8567
2023-05-24T02:01:44.975Z,18.8456
2023-05-24T02:02:46.934Z,18.8495
2023-05-24T02:03:48.639Z,18.8357
2023-05-24T02:04:50.478Z,18.8567
2023-05-24T02:05:59.854Z,18.8706
2023-05-24T02:06:54.237Z,18.8766
2023-05-24T02:07:55.992Z,18.8583
2023-05-24T02:08:57.855Z,18.8431
2023-05-24T02:09:59.675Z,18.8207
2023-05-24T02:11:01.497Z,18.8148
2023-05-24T02:12:03.338Z,18.8380
2023-05-24T02:13:05.193Z,18.8287
2023-05-24T02:14:06.984Z,18.8443
2023-05-24T02:15:08.842Z,18.8447
2023-05-24T02:16:10.767Z,18.8400
2023-05-24T02:17:12.511Z,18.8610
2023-05-24T02:18:21.984Z,18.8663
2023-05-24T02:19:16.183Z,18.8733
2023-05-24T02:20:18.046Z,18.8380
2023-05-24T02:21:20.071Z,18.8456
2023-05-24T02:22:21.665Z,18.8704
2023-05-24T02:23:23.534Z,18.8827
2023-05-24T02:24:25.342Z,18.8747
2023-05-24T02:25:27.185Z,18.8723
2023-05-24T02:26:29.008Z,18.8807
2023-05-24T02:27:30.862Z,18.8587
2023-05-24T02:28:32.678Z,18.8032
2023-05-24T02:29:34.529Z,18.7917
2023-05-24T02:30:36.390Z,18.8002
2023-05-24T02:31:38.272Z,18.8250
2023-05-24T02:32:40.063Z,18.8176
2023-05-24T02:33:41.895Z,18.8022
2023-05-24T02:34:43.694Z,18.8250
2023-05-24T02:35:45.532Z,18.8334
2023-05-24T02:36:47.367Z,18.8308
2023-05-24T02:37:49.186Z,18.8386
2023-05-24T02:38:51.073Z,18.8616
2023-05-24T02:39:52.853Z,18.8675
2023-05-24T02:40:54.674Z,18.8626
2023-05-24T02:41:56.521Z,18.8643
2023-05-24T02:42:58.335Z,18.8482
2023-05-24T02:44:00.163Z,18.8376
2023-05-24T02:45:02.025Z,18.8098
2023-05-24T02:46:03.862Z,18.8162
2023-05-24T02:47:05.658Z,18.8174
2023-05-24T02:48:07.660Z,18.8300
2023-05-24T02:49:09.366Z,18.8244
2023-05-24T02:50:11.155Z,18.8376
2023-05-24T02:51:13.001Z,18.8497
2023-05-24T02:52:14.830Z,18.8361
2023-05-24T02:53:16.718Z,18.8302
2023-05-24T02:54:18.527Z,18.8242
2023-05-24T02:55:20.342Z,18.7885
2023-05-24T02:56:22.176Z,18.8016
2023-05-24T02:57:24.011Z,18.8236
2023-05-24T02:58:25.845Z,18.8447
2023-05-24T02:59:27.695Z,18.8491
2023-05-24T03:00:29.521Z,18.8394
2023-05-24T03:01:31.370Z,18.8320
2023-05-24T03:02:33.216Z,18.7905
2023-05-24T03:03:35.130Z,18.8018
2023-05-24T03:04:36.869Z,18.8158
2023-05-24T03:05:38.711Z,18.8067
2023-05-24T03:06:40.524Z,18.7883
2023-05-24T03:07:42.387Z,18.7739
2023-05-24T03:08:44.208Z,18.7751
2023-05-24T03:09:46.037Z,18.8051
2023-05-24T03:10:47.869Z,18.8002
2023-05-24T03:11:49.723Z,18.7778
2023-05-24T03:12:51.541Z,18.7435
2023-05-24T03:13:53.397Z,18.7710
2023-05-24T03:14:55.224Z,18.7819
2023-05-24T03:15:57.094Z,18.7905
2023-05-24T03:16:58.882Z,18.8018
2023-05-24T03:18:00.763Z,18.7950
2023-05-24T03:19:02.566Z,18.7934
2023-05-24T03:20:04.448Z,18.7663
2023-05-24T03:21:06.291Z,18.7591
2023-05-24T03:22:15.581Z,18.7942
2023-05-24T03:23:09.902Z,18.8103
2023-05-24T03:24:11.750Z,18.8150
2023-05-24T03:25:13.614Z,18.7839
2023-05-24T03:26:15.410Z,18.7887
2023-05-24T03:27:17.244Z,18.8041
2023-05-24T03:28:19.090Z,18.7782
2023-05-24T03:29:20.901Z,18.7852
2023-05-24T03:30:22.759Z,18.7989
2023-05-24T03:31:24.613Z,18.8026
2023-05-24T03:32:26.425Z,18.7973
2023-05-24T03:33:28.252Z,18.7525
2023-05-24T03:34:30.135Z,18.7599
2023-05-24T03:35:32.048Z,18.7650
2023-05-24T03:36:33.760Z,18.7336
2023-05-24T03:37:35.581Z,18.7550
2023-05-24T03:38:37.435Z,18.7655
2023-05-24T03:39:39.256Z,18.7605
2023-05-24T03:40:41.401Z,18.7574
2023-05-24T03:41:42.919Z,18.7942
2023-05-24T03:42:44.752Z,18.8045
2023-05-24T03:43:46.597Z,18.7965
2023-05-24T03:44:48.455Z,18.7913
2023-05-24T03:45:50.291Z,18.7897
2023-05-24T03:46:52.080Z,18.7959
2023-05-24T03:47:53.963Z,18.7969
2023-05-24T03:48:55.778Z,18.8024
2023-05-24T03:49:57.613Z,18.8039
2023-05-24T03:50:59.433Z,18.7478
2023-05-24T03:52:01.281Z,18.7527
2023-05-24T03:53:03.133Z,18.7712
2023-05-24T03:54:04.943Z,18.7652
2023-05-24T03:55:06.799Z,18.7439
2023-05-24T03:56:08.612Z,18.6971
2023-05-24T03:57:10.439Z,18.6490
2023-05-24T03:58:12.296Z,18.6309
2023-05-24T03:59:14.110Z,18.6067
2023-05-24T04:00:15.925Z,18.6523
2023-05-24T04:01:32.152Z,18.6884
2023-05-24T04:02:21.975Z,18.7184
2023-05-24T04:03:22.525Z,18.7611
2023-05-24T04:04:24.210Z,18.7677
2023-05-24T04:05:25.580Z,18.7597
2023-05-24T04:06:27.121Z,18.7521
2023-05-24T04:07:28.771Z,18.7533
2023-05-24T04:08:30.611Z,18.7264
2023-05-24T04:09:32.455Z,18.6911
2023-05-24T04:10:34.279Z,18.6305
2023-05-24T04:11:36.103Z,18.6397
2023-05-24T04:12:37.971Z,18.6443
2023-05-24T04:13:39.806Z,18.6825
2023-05-24T04:14:41.618Z,18.6531
2023-05-24T04:15:43.453Z,18.6291
2023-05-24T04:16:52.838Z,18.6350
2023-05-24T04:17:47.237Z,18.6570
2023-05-24T04:18:49.174Z,18.5863
2023-05-24T04:19:50.815Z,18.5847
2023-05-24T04:20:52.647Z,18.5890
2023-05-24T04:21:54.458Z,18.6252
2023-05-24T04:22:56.379Z,18.6182
2023-05-24T04:24:05.649Z,18.6087
2023-05-24T04:25:00.199Z,18.6450
2023-05-24T04:26:01.794Z,18.6280
2023-05-24T04:27:03.649Z,18.6042
2023-05-24T04:28:05.514Z,18.6174
2023-05-24T04:29:07.295Z,18.6315
2023-05-24T04:30:09.154Z,18.5828
2023-05-24T04:31:11.004Z,18.5985
2023-05-24T04:32:12.804Z,18.6533
2023-05-24T04:33:14.762Z,18.7051
2023-05-24T04:34:16.550Z,18.6831
2023-05-24T04:35:18.431Z,18.6726
2023-05-24T04:36:20.235Z,18.7059
2023-05-24T04:37:22.067Z,18.7346
2023-05-24T04:38:23.904Z,18.7172
2023-05-24T04:39:25.755Z,18.6973
2023-05-24T04:40:27.580Z,18.6909
2023-05-24T04:41:29.412Z,18.6866
2023-05-24T04:42:31.256Z,18.7104
2023-05-24T04:43:33.084Z,18.7227
2023-05-24T04:44:34.905Z,18.7221
2023-05-24T04:45:36.760Z,18.7250
2023-05-24T04:46:38.618Z,18.7357
2023-05-24T04:47:40.445Z,18.7410
2023-05-24T04:48:42.266Z,18.7242
2023-05-24T04:49:44.152Z,18.7129
2023-05-24T04:50:45.948Z,18.7361
2023-05-24T04:51:47.771Z,18.7459
2023-05-24T04:52:49.602Z,18.7392
2023-05-24T04:53:51.442Z,18.7160
2023-05-24T04:54:53.269Z,18.6962
2023-05-24T04:55:55.132Z,18.6763
2023-05-24T04:56:56.961Z,18.6825
2023-05-24T04:57:58.801Z,18.7069
2023-05-24T04:59:00.632Z,18.6652
2023-05-24T05:00:02.470Z,18.6266
2023-05-24T05:01:04.298Z,18.6143
2023-05-24T05:02:06.212Z,18.6174
2023-05-24T05:03:08.027Z,18.6163
2023-05-24T05:04:09.875Z,18.6079
2023-05-24T05:05:11.623Z,18.6056
2023-05-24T05:06:13.500Z,18.6225
2023-05-24T05:07:15.316Z,18.6981
2023-05-24T05:08:17.133Z,18.6915
2023-05-24T05:09:18.972Z,18.6759
2023-05-24T05:10:23.678Z,18.7125
2023-05-24T05:11:22.691Z,18.7143
2023-05-24T05:12:24.458Z,18.7147
2023-05-24T05:13:26.299Z,18.7184
2023-05-24T05:14:28.151Z,18.7053
2023-05-24T05:15:29.952Z,18.7086
2023-05-24T05:16:31.841Z,18.7277
2023-05-24T05:17:33.658Z,18.7217
2023-05-24T05:18:35.444Z,18.7028
2023-05-24T05:19:37.310Z,18.6923
2023-05-24T05:20:39.191Z,18.6640
2023-05-24T05:21:40.963Z,18.6597
2023-05-24T05:22:42.811Z,18.6521
2023-05-24T05:23:44.617Z,18.6504
2023-05-24T05:24:46.455Z,18.6706
2023-05-24T05:25:48.281Z,18.6849
2023-05-24T05:26:58.125Z,18.6985
2023-05-24T05:27:59.465Z,18.7169
2023-05-24T05:28:53.800Z,18.7066
2023-05-24T05:29:55.636Z,18.7055
2023-05-24T05:30:57.464Z,18.7069
2023-05-24T05:31:59.374Z,18.6915
2023-05-24T05:33:01.180Z,18.5876
2023-05-24T05:34:02.957Z,18.5732
2023-05-24T05:35:04.852Z,18.5701
2023-05-24T05:36:06.622Z,18.6042
2023-05-24T05:37:08.478Z,18.6145
2023-05-24T05:38:11.111Z,18.6194
2023-05-24T05:39:12.123Z,18.6145
2023-05-24T05:40:13.953Z,18.6114
2023-05-24T05:41:15.804Z,18.6211
2023-05-24T05:42:17.636Z,18.6235
2023-05-24T05:43:19.478Z,18.6402
2023-05-24T05:44:21.298Z,18.6806
2023-05-24T05:45:23.127Z,18.6810
2023-05-24T05:46:25.015Z,18.6948
2023-05-24T05:47:26.849Z,18.7051
2023-05-24T05:48:28.642Z,18.7032
2023-05-24T05:49:30.458Z,18.6973
2023-05-24T05:50:32.295Z,18.7059
2023-05-24T05:51:34.125Z,18.7190
2023-05-24T05:52:35.983Z,18.7217
2023-05-24T05:53:37.805Z,18.7227
2023-05-24T05:54:39.633Z,18.7192
2023-05-24T05:55:41.491Z,18.7190
2023-05-24T05:56:43.321Z,18.7051
2023-05-24T05:57:45.134Z,18.6973
2023-05-24T05:58:46.967Z,18.6962
2023-05-24T05:59:48.804Z,18.6699
2023-05-24T06:00:50.657Z,18.6480
2023-05-24T06:01:52.475Z,18.6580
2023-05-24T06:02:54.353Z,18.6510
2023-05-24T06:03:56.218Z,18.6309
2023-05-24T06:04:58.210Z,18.6490
2023-05-24T06:05:59.837Z,18.6695
2023-05-24T06:07:01.699Z,18.6763
2023-05-24T06:08:03.497Z,18.6782
2023-05-24T06:09:05.339Z,18.6753
2023-05-24T06:10:07.152Z,18.6537
2023-05-24T06:11:08.987Z,18.6114
2023-05-24T06:12:10.842Z,18.6326
2023-05-24T06:13:12.678Z,18.6821
2023-05-24T06:14:14.520Z,18.7071
2023-05-24T06:15:16.347Z,18.7092
2023-05-24T06:16:18.244Z,18.7291
2023-05-24T06:17:20.024Z,18.7199
2023-05-24T06:18:21.880Z,18.7199
2023-05-24T06:19:23.677Z,18.7184
2023-05-24T06:20:25.577Z,18.7067
2023-05-24T06:21:27.354Z,18.7172
2023-05-24T06:22:29.191Z,18.7112
2023-05-24T06:23:31.034Z,18.6903
2023-05-24T06:24:32.889Z,18.6533
2023-05-24T06:25:34.707Z,18.6457
2023-05-24T06:26:36.523Z,18.6375
2023-05-24T06:27:38.368Z,18.6363
2023-05-24T06:28:40.221Z,18.6646
2023-05-24T06:29:49.671Z,18.6699
2023-05-24T06:30:51.470Z,18.6666
2023-05-24T06:31:45.778Z,18.6841
2023-05-24T06:32:47.622Z,18.6777
2023-05-24T06:34:02.393Z,18.6459
2023-05-24T06:34:54.231Z,18.6153
2023-05-24T06:35:54.771Z,18.6198
2023-05-24T06:36:56.332Z,18.6135
2023-05-24T06:37:57.894Z,18.6243
2023-05-24T06:38:59.445Z,18.6572
2023-05-24T06:40:01.025Z,18.6722
2023-05-24T06:41:02.537Z,18.6808
2023-05-24T06:42:04.090Z,18.6860
2023-05-24T06:43:05.911Z,18.6890
2023-05-24T06:44:07.739Z,18.6907
2023-05-24T06:45:09.562Z,18.6895
2023-05-24T06:46:11.391Z,18.6979
2023-05-24T06:47:13.298Z,18.6841
2023-05-24T06:48:15.155Z,18.6473
2023-05-24T06:49:16.907Z,18.6340
2023-05-24T06:50:18.764Z,18.6274
2023-05-24T06:51:20.615Z,18.6237
2023-05-24T06:52:22.429Z,18.6428
2023-05-24T06:53:24.264Z,18.5935
2023-05-24T06:54:26.083Z,18.5627
2023-05-24T06:55:27.921Z,18.5915
2023-05-24T06:56:29.765Z,18.6174
2023-05-24T06:57:31.594Z,18.6389
2023-05-24T06:58:33.431Z,18.6601
2023-05-24T06:59:35.265Z,18.6560
2023-05-24T07:00:37.102Z,18.6389
2023-05-24T07:01:39.021Z,18.6467
2023-05-24T07:02:40.793Z,18.6798
2023-05-24T07:03:42.677Z,18.6948
2023-05-24T07:04:44.524Z,18.6903
2023-05-24T07:05:46.278Z,18.6685
2023-05-24T07:06:48.132Z,18.6313
2023-05-24T07:07:49.929Z,18.6077
2023-05-24T07:08:51.754Z,18.5900
2023-05-24T07:09:53.605Z,18.5878
2023-05-24T07:10:55.439Z,18.5917
2023-05-24T07:11:57.265Z,18.5635
2023-05-24T07:12:59.100Z,18.5646
2023-05-24T07:14:01.023Z,18.5822
2023-05-24T07:15:02.756Z,18.5872
2023-05-24T07:16:04.619Z,18.6108
2023-05-24T07:17:06.607Z,18.6420
2023-05-24T07:18:08.293Z,18.6194
2023-05-24T07:19:10.097Z,18.6334
2023-05-24T07:20:12.008Z,18.6506
2023-05-24T07:21:13.771Z,18.6545
2023-05-24T07:22:15.751Z,18.6593
2023-05-24T07:23:17.457Z,18.6740
2023-05-24T07:24:19.337Z,18.6886
2023-05-24T07:25:28.655Z,18.7022
2023-05-24T07:26:22.986Z,18.6999
2023-05-24T07:27:24.790Z,18.6874
2023-05-24T07:28:26.679Z,18.6931
2023-05-24T07:29:28.482Z,18.6938
2023-05-24T07:30:32.648Z,18.6681
2023-05-24T07:31:32.141Z,18.6365
2023-05-24T07:32:34.107Z,18.6196
2023-05-24T07:33:35.866Z,18.6038
2023-05-24T07:34:37.651Z,18.5794
2023-05-24T07:35:39.504Z,18.5586
2023-05-24T07:36:41.329Z,18.5715
2023-05-24T07:37:43.184Z,18.5835
2023-05-24T07:38:45.009Z,18.6003
2023-05-24T07:39:46.854Z,18.6227
2023-05-24T07:40:48.687Z,18.6527
2023-05-24T07:41:50.499Z,18.6634
2023-05-24T07:42:52.359Z,18.6821
2023-05-24T07:43:54.183Z,18.6819
2023-05-24T07:44:56.013Z,18.6646
2023-05-24T07:45:57.863Z,18.6309
2023-05-24T07:46:59.710Z,18.6038
2023-05-24T07:48:01.519Z,18.6147
2023-05-24T07:49:03.359Z,18.6087
2023-05-24T07:50:05.181Z,18.6079
2023-05-24T07:51:07.018Z,18.6250
2023-05-24T07:52:08.831Z,18.6266
2023-05-24T07:53:10.690Z,18.6071
2023-05-24T07:54:12.511Z,18.6176
2023-05-24T07:55:14.353Z,18.6237
2023-05-24T07:56:16.173Z,18.6422
2023-05-24T07:57:18.007Z,18.6383
2023-05-24T07:58:19.845Z,18.6426
2023-05-24T07:59:21.689Z,18.6839
2023-05-24T08:00:23.527Z,18.7051
2023-05-24T08:01:25.379Z,18.7174
2023-05-24T08:02:27.254Z,18.7385
2023-05-24T08:03:29.189Z,18.7552
2023-05-24T08:04:30.867Z,18.7700
2023-05-24T08:05:32.673Z,18.7671
2023-05-24T08:06:34.619Z,18.7681
2023-05-24T08:07:36.357Z,18.7640
2023-05-24T08:08:38.221Z,18.7595
2023-05-24T08:09:40.030Z,18.7722
2023-05-24T08:10:41.867Z,18.7821
2023-05-24T08:11:43.796Z,18.7876
2023-05-24T08:12:45.533Z,18.7644
2023-05-24T08:13:47.358Z,18.7180
2023-05-24T08:14:49.206Z,18.7051
2023-05-24T08:15:51.020Z,18.7079
2023-05-24T08:16:52.911Z,18.6934
2023-05-24T08:17:54.745Z,18.7096
2023-05-24T08:18:56.606Z,18.7190
2023-05-24T08:19:58.393Z,18.7611
2023-05-24T08:21:00.202Z,18.7630
2023-05-24T08:22:02.048Z,18.7638
2023-05-24T08:23:03.872Z,18.7872
2023-05-24T08:24:08.438Z,18.8207
2023-05-24T08:25:07.777Z,18.8320
2023-05-24T08:26:09.390Z,18.8398
2023-05-24T08:27:11.197Z,18.8367
2023-05-24T08:28:20.636Z,18.8694
2023-05-24T08:29:14.886Z,18.8795
2023-05-24T08:30:16.707Z,18.8924
2023-05-24T08:31:18.596Z,18.9273
2023-05-24T08:32:20.391Z,18.9380
2023-05-24T08:33:22.215Z,18.9563
2023-05-24T08:34:24.052Z,18.9612
2023-05-24T08:35:25.888Z,18.9653
2023-05-24T08:36:35.342Z,19.0060
2023-05-24T08:37:29.640Z,19.0184
2023-05-24T08:38:31.450Z,19.0452
2023-05-24T08:39:33.552Z,19.0278
2023-05-24T08:40:35.116Z,19.0343
2023-05-24T08:41:37.051Z,19.0530
2023-05-24T08:42:38.794Z,19.0538
2023-05-24T08:43:40.622Z,19.0508
2023-05-24T08:44:42.475Z,19.0349
2023-05-24T08:45:44.801Z,19.0555
2023-05-24T08:46:46.235Z,19.0497
2023-05-24T08:47:48.131Z,19.0512
2023-05-24T08:48:49.837Z,19.0481
2023-05-24T08:49:51.671Z,19.0327
2023-05-24T08:50:53.473Z,19.0608
2023-05-24T08:51:55.311Z,19.0584
2023-05-24T08:52:57.129Z,19.0479
2023-05-24T08:53:59.003Z,19.0538
2023-05-24T08:55:00.804Z,19.0781
2023-05-24T08:56:02.657Z,19.0859
2023-05-24T08:57:04.512Z,19.1169
2023-05-24T08:58:06.330Z,19.1432
2023-05-24T08:59:08.181Z,19.1325
2023-05-24T09:00:09.994Z,19.1342
2023-05-24T09:01:11.863Z,19.1547
2023-05-24T09:02:13.819Z,19.1939
2023-05-24T09:03:15.577Z,19.2200
2023-05-24T09:04:17.383Z,19.2069
2023-05-24T09:05:19.156Z,19.2108
2023-05-24T09:06:20.955Z,19.2128
2023-05-24T09:07:22.803Z,19.2110
2023-05-24T09:08:24.655Z,19.1705
2023-05-24T09:09:26.465Z,19.1726
2023-05-24T09:10:31.229Z,19.1925
2023-05-24T09:11:32.912Z,19.1730
2023-05-24T09:12:38.195Z,19.1668
2023-05-24T09:13:36.044Z,19.1995
2023-05-24T09:14:36.570Z,19.1927
2023-05-24T09:15:38.182Z,19.2120
2023-05-24T09:16:39.716Z,19.2317
2023-05-24T09:17:41.278Z,19.2463
2023-05-24T09:18:42.987Z,19.2716
2023-05-24T09:19:44.793Z,19.3079
2023-05-24T09:20:46.998Z,19.2506
2023-05-24T09:21:48.556Z,19.2215
2023-05-24T09:22:50.282Z,19.2354
2023-05-24T09:23:52.133Z,19.2356
2023-05-24T09:24:53.991Z,19.2512
2023-05-24T09:25:55.806Z,19.2697
2023-05-24T09:26:57.643Z,19.2775
2023-05-24T09:27:59.508Z,19.2796
2023-05-24T09:29:01.290Z,19.2851
2023-05-24T09:30:03.149Z,19.2771
2023-05-24T09:31:07.781Z,19.3260
2023-05-24T09:32:06.840Z,19.3603
2023-05-24T09:33:08.703Z,19.3246
2023-05-24T09:34:10.503Z,19.3235
2023-05-24T09:35:12.328Z,19.3266
2023-05-24T09:36:14.148Z,19.3406
2023-05-24T09:37:16.001Z,19.3402
2023-05-24T09:38:17.837Z,19.3268
2023-05-24T09:39:19.653Z,19.3463
2023-05-24T09:40:21.508Z,19.3720
2023-05-24T09:41:23.330Z,19.3924
2023-05-24T09:42:25.175Z,19.4076
2023-05-24T09:43:27.021Z,19.4301
2023-05-24T09:44:28.847Z,19.4234
2023-05-24T09:45:30.653Z,19.4174
2023-05-24T09:46:32.548Z,19.4301
2023-05-24T09:47:34.388Z,19.4028
2023-05-24T09:48:36.192Z,19.3433
2023-05-24T09:49:38.035Z,19.3026
2023-05-24T09:50:39.941Z,19.2710
2023-05-24T09:51:41.718Z,19.3313
2023-05-24T09:52:43.530Z,19.3714
2023-05-24T09:53:45.404Z,19.3737
2023-05-24T09:54:47.210Z,19.4000
2023-05-24T09:55:49.064Z,19.3870
2023-05-24T09:56:50.867Z,19.3907
2023-05-24T09:57:52.718Z,19.4032
2023-05-24T09:58:54.562Z,19.3952
2023-05-24T09:59:56.384Z,19.3940
2023-05-24T10:00:58.257Z,19.3634
2023-05-24T10:02:00.090Z,19.3837
2023-05-24T10:03:01.942Z,19.4022
2023-05-24T10:04:06.118Z,19.4113
2023-05-24T10:05:06.880Z,19.4104
2023-05-24T10:06:08.439Z,19.4330
2023-05-24T10:07:10.044Z,19.4269
2023-05-24T10:08:11.574Z,19.4254
2023-05-24T10:09:13.112Z,19.3903
2023-05-24T10:10:14.788Z,19.3696
2023-05-24T10:11:16.573Z,19.3381
2023-05-24T10:12:18.425Z,19.3726
2023-05-24T10:13:20.263Z,19.3977
2023-05-24T10:14:22.114Z,19.3704
2023-05-24T10:15:23.945Z,19.3761
2023-05-24T10:16:25.845Z,19.3889
2023-05-24T10:17:27.687Z,19.4016
2023-05-24T10:18:29.437Z,19.3831
2023-05-24T10:19:31.276Z,19.3919
2023-05-24T10:20:33.133Z,19.4094
2023-05-24T10:21:35.022Z,19.3868
2023-05-24T10:22:36.841Z,19.4026
2023-05-24T10:23:38.665Z,19.3948
2023-05-24T10:24:40.469Z,19.3872
2023-05-24T10:25:42.316Z,19.3813
2023-05-24T10:26:44.166Z,19.3776
2023-05-24T10:27:46.094Z,19.3850
2023-05-24T10:28:47.831Z,19.4032
2023-05-24T10:29:49.679Z,19.4080
2023-05-24T10:30:51.525Z,19.3975
2023-05-24T10:31:53.425Z,19.4022
2023-05-24T10:32:55.262Z,19.4273
2023-05-24T10:34:04.110Z,19.4289
2023-05-24T10:34:59.847Z,19.4445
2023-05-24T10:36:00.686Z,19.4400
2023-05-24T10:37:02.573Z,19.4125
2023-05-24T10:38:04.390Z,19.4045
2023-05-24T10:39:06.221Z,19.3942
2023-05-24T10:40:08.033Z,19.3823
2023-05-24T10:41:09.922Z,19.3601
2023-05-24T10:42:11.715Z,19.4164
2023-05-24T10:43:13.532Z,19.4347
2023-05-24T10:44:15.400Z,19.4472
2023-05-24T10:45:17.203Z,19.4525
2023-05-24T10:46:19.094Z,19.4380
2023-05-24T10:47:20.887Z,19.4556
2023-05-24T10:48:22.777Z,19.4603
2023-05-24T10:49:24.572Z,19.4573
2023-05-24T10:50:26.416Z,19.4564
2023-05-24T10:51:28.234Z,19.4659
2023-05-24T10:52:30.137Z,19.4460
2023-05-24T10:53:31.976Z,19.4433
2023-05-24T10:54:33.738Z,19.4113
2023-05-24T10:55:35.596Z,19.4304
2023-05-24T10:56:37.416Z,19.4293
2023-05-24T10:57:39.251Z,19.4345
2023-05-24T10:58:41.203Z,19.4232
2023-05-24T10:59:42.919Z,19.4158
2023-05-24T11:00:44.754Z,19.4363
2023-05-24T11:01:46.703Z,19.4320
2023-05-24T11:02:48.464Z,19.4336
2023-05-24T11:03:50.247Z,19.4271
2023-05-24T11:04:52.156Z,19.4032
2023-05-24T11:05:54.045Z,19.4028
2023-05-24T11:06:55.798Z,19.4129
2023-05-24T11:07:57.618Z,19.4345
2023-05-24T11:08:59.446Z,19.4394
2023-05-24T11:10:01.322Z,19.3755
2023-05-24T11:11:15.013Z,19.3488
2023-05-24T11:12:08.121Z,19.3445
2023-05-24T11:13:08.759Z,19.3311
2023-05-24T11:14:10.240Z,19.3449
2023-05-24T11:15:11.793Z,19.3967
2023-05-24T11:16:13.393Z,19.4400
2023-05-24T11:17:14.921Z,19.4158
2023-05-24T11:18:16.602Z,19.3728
2023-05-24T11:19:18.044Z,19.3915
2023-05-24T11:20:19.634Z,19.4076
2023-05-24T11:21:21.445Z,19.3780
2023-05-24T11:22:23.299Z,19.3761
2023-05-24T11:23:25.170Z,19.3743
2023-05-24T11:24:26.978Z,19.3737
2023-05-24T11:25:28.801Z,19.3800
2023-05-24T11:26:30.638Z,19.3809
2023-05-24T11:27:32.480Z,19.4351
2023-05-24T11:28:34.377Z,19.4456
2023-05-24T11:29:38.193Z,19.4468
2023-05-24T11:30:38.002Z,19.4525
2023-05-24T11:31:42.440Z,19.4451
2023-05-24T11:32:43.146Z,19.4049
2023-05-24T11:33:44.606Z,19.4143
2023-05-24T11:34:46.196Z,19.4037
2023-05-24T11:35:47.746Z,19.3691
2023-05-24T11:36:49.301Z,19.3813
2023-05-24T11:37:50.854Z,19.4139
2023-05-24T11:38:52.683Z,19.4406
2023-05-24T11:39:54.491Z,19.3882
2023-05-24T11:40:56.329Z,19.3809
2023-05-24T11:41:58.170Z,19.3946
2023-05-24T11:43:00.055Z,19.3952
2023-05-24T11:44:01.880Z,19.3924
2023-05-24T11:45:03.704Z,19.3809
2023-05-24T11:46:05.587Z,19.3942
2023-05-24T11:47:07.343Z,19.3726
2023-05-24T11:48:09.236Z,19.3687
2023-05-24T11:49:11.039Z,19.3685
2023-05-24T11:50:12.892Z,19.3763
2023-05-24T11:51:14.714Z,19.3620
2023-05-24T11:52:16.549Z,19.3704
2023-05-24T11:53:18.372Z,19.3646
2023-05-24T11:54:20.210Z,19.4020
2023-05-24T11:55:22.052Z,19.4328
2023-05-24T11:56:23.885Z,19.4308
2023-05-24T11:57:25.762Z,19.4532
2023-05-24T11:58:27.574Z,19.4723
2023-05-24T11:59:29.425Z,19.4603
2023-05-24T12:00:31.361Z,19.4458
2023-05-24T12:01:33.072Z,19.4659
2023-05-24T12:02:35.011Z,19.4776
2023-05-24T12:03:36.897Z,19.4564
2023-05-24T12:04:38.664Z,19.4433
2023-05-24T12:05:40.420Z,19.4390
2023-05-24T12:06:42.252Z,19.4532
2023-05-24T12:07:44.119Z,19.4659
2023-05-24T12:08:45.950Z,19.4766
2023-05-24T12:09:47.794Z,19.4645
2023-05-24T12:10:49.610Z,19.4647
2023-05-24T12:11:51.443Z,19.4575
2023-05-24T12:12:53.289Z,19.4429
2023-05-24T12:13:55.097Z,19.4063
2023-05-24T12:14:56.936Z,19.3891
2023-05-24T12:15:58.835Z,19.4258
2023-05-24T12:17:00.613Z,19.4521
2023-05-24T12:18:02.537Z,19.4731
2023-05-24T12:19:11.592Z,19.4792
2023-05-24T12:20:07.144Z,19.4698
2023-05-24T12:21:07.963Z,19.4616
2023-05-24T12:22:09.784Z,19.4345
2023-05-24T12:23:11.643Z,19.4230
2023-05-24T12:24:13.486Z,19.4211
2023-05-24T12:25:15.284Z,19.4550
2023-05-24T12:26:17.126Z,19.4628
2023-05-24T12:27:18.966Z,19.4721